SWA742 KDEN-KBOI
Flight info
| Callsign | SWA742 |
|---|---|
| Flight time | N/A |
| Altitude | 40000 |
| Route | ZIMMR4 CHNGY REAPS KOURT4 |
| Aircraft | B738/M-SDE2E3FGHIRWXY/LB1 |
Departure
| Time | 2026-05-08 05:26 |
|---|---|
| Airport | Denver International Airport (KDEN) |
Arrival
| Time | N/A |
|---|---|
| Airport | Boise Air Terminal/Gowen Field (KBOI) |
| Time | Latitude | Longitude | Altitude | Speed | Heading |
|---|---|---|---|---|---|
| 2026-05-08 05:04 | 39.86256 | -104.67088 | 5382 ft | 0 kts | 1° |
| 2026-05-08 05:14 | 39.86234 | -104.67089 | 5384 ft | 4 kts | 2° |
| 2026-05-08 05:14 | 39.86207 | -104.67088 | 5384 ft | 4 kts | 346° |
| 2026-05-08 05:14 | 39.86190 | -104.67077 | 5386 ft | 3 kts | 275° |
| 2026-05-08 05:15 | 39.86190 | -104.67073 | 5386 ft | 0 kts | 271° |
| 2026-05-08 05:18 | 39.86182 | -104.67091 | 5386 ft | 8 kts | 226° |
| 2026-05-08 05:18 | 39.86094 | -104.67155 | 5385 ft | 18 kts | 210° |
| 2026-05-08 05:18 | 39.86065 | -104.67294 | 5386 ft | 19 kts | 269° |
| 2026-05-08 05:19 | 39.86066 | -104.67496 | 5386 ft | 25 kts | 270° |
| 2026-05-08 05:19 | 39.86068 | -104.67731 | 5386 ft | 27 kts | 270° |
| 2026-05-08 05:19 | 39.86069 | -104.67963 | 5386 ft | 25 kts | 271° |
| 2026-05-08 05:19 | 39.86046 | -104.68163 | 5383 ft | 22 kts | 248° |
| 2026-05-08 05:20 | 39.86032 | -104.68374 | 5369 ft | 27 kts | 271° |
| 2026-05-08 05:20 | 39.85965 | -104.68511 | 5363 ft | 17 kts | 181° |
| 2026-05-08 05:20 | 39.85851 | -104.68513 | 5363 ft | 16 kts | 181° |
| 2026-05-08 05:20 | 39.85742 | -104.68515 | 5367 ft | 15 kts | 180° |
| 2026-05-08 05:21 | 39.85608 | -104.68518 | 5368 ft | 23 kts | 179° |
| 2026-05-08 05:21 | 39.85430 | -104.68523 | 5371 ft | 28 kts | 183° |
| 2026-05-08 05:21 | 39.85233 | -104.68531 | 5368 ft | 22 kts | 204° |
| 2026-05-08 05:21 | 39.85203 | -104.68729 | 5362 ft | 26 kts | 268° |
| 2026-05-08 05:22 | 39.85197 | -104.68992 | 5352 ft | 32 kts | 268° |
| 2026-05-08 05:22 | 39.85200 | -104.69304 | 5345 ft | 37 kts | 272° |
| 2026-05-08 05:22 | 39.85203 | -104.69521 | 5334 ft | 0 kts | 271° |
| 2026-05-08 05:24 | 39.85203 | -104.69539 | 5334 ft | 6 kts | 271° |
| 2026-05-08 05:25 | 39.85206 | -104.69596 | 5333 ft | 12 kts | 282° |
| 2026-05-08 05:25 | 39.85280 | -104.69658 | 5336 ft | 4 kts | 0° |
| 2026-05-08 05:25 | 39.85398 | -104.69658 | 5337 ft | 59 kts | 0° |
| 2026-05-08 05:25 | 39.85834 | -104.69653 | 5341 ft | 125 kts | 360° |
| 2026-05-08 05:26 | 39.86931 | -104.69657 | 5670 ft | 179 kts | 359° |
| 2026-05-08 05:26 | 39.88223 | -104.69657 | 6824 ft | 195 kts | 0° |
| 2026-05-08 05:26 | 39.89635 | -104.69592 | 7724 ft | 214 kts | 360° |
| 2026-05-08 05:26 | 39.91161 | -104.70144 | 8042 ft | 250 kts | 324° |
| 2026-05-08 05:27 | 39.92273 | -104.72042 | 8511 ft | 281 kts | 288° |
| 2026-05-08 05:27 | 39.92534 | -104.74594 | 9498 ft | 289 kts | 272° |
| 2026-05-08 05:27 | 39.92600 | -104.77223 | 9859 ft | 291 kts | 271° |
| 2026-05-08 05:27 | 39.92668 | -104.79867 | 9926 ft | 291 kts | 272° |
| 2026-05-08 05:28 | 39.92784 | -104.82514 | 9985 ft | 298 kts | 274° |
| 2026-05-08 05:28 | 39.92945 | -104.85338 | 10351 ft | 324 kts | 274° |
| 2026-05-08 05:28 | 39.93122 | -104.88312 | 11328 ft | 332 kts | 274° |
| 2026-05-08 05:28 | 39.93302 | -104.91333 | 12427 ft | 336 kts | 274° |
| 2026-05-08 05:29 | 39.93480 | -104.94354 | 13445 ft | 341 kts | 274° |
| 2026-05-08 05:29 | 39.93660 | -104.97465 | 14442 ft | 347 kts | 274° |
| 2026-05-08 05:29 | 39.93841 | -105.00630 | 15420 ft | 352 kts | 274° |
| 2026-05-08 05:29 | 39.94023 | -105.03843 | 16370 ft | 357 kts | 274° |
| 2026-05-08 05:30 | 39.94206 | -105.07097 | 17272 ft | 363 kts | 274° |
| 2026-05-08 05:30 | 39.94390 | -105.10407 | 18151 ft | 368 kts | 274° |
| 2026-05-08 05:30 | 39.94575 | -105.13749 | 19001 ft | 373 kts | 274° |
| 2026-05-08 05:30 | 39.94762 | -105.17143 | 19819 ft | 378 kts | 274° |
| 2026-05-08 05:31 | 39.94951 | -105.20582 | 20617 ft | 383 kts | 274° |
| 2026-05-08 05:31 | 39.95138 | -105.24020 | 21383 ft | 387 kts | 274° |
| 2026-05-08 05:31 | 39.95329 | -105.27553 | 22136 ft | 392 kts | 274° |
| 2026-05-08 05:31 | 39.95521 | -105.31126 | 22748 ft | 398 kts | 274° |
| 2026-05-08 05:32 | 39.95715 | -105.34752 | 23398 ft | 403 kts | 274° |
| 2026-05-08 05:32 | 39.95911 | -105.38421 | 24003 ft | 407 kts | 274° |
| 2026-05-08 05:32 | 39.96107 | -105.42122 | 24583 ft | 412 kts | 274° |
| 2026-05-08 05:32 | 39.96303 | -105.45864 | 25136 ft | 416 kts | 274° |
| 2026-05-08 05:33 | 39.96501 | -105.49656 | 25650 ft | 420 kts | 274° |
| 2026-05-08 05:33 | 39.96700 | -105.53481 | 26182 ft | 424 kts | 274° |
| 2026-05-08 05:33 | 39.96899 | -105.57323 | 26653 ft | 428 kts | 274° |
| 2026-05-08 05:33 | 39.97099 | -105.61216 | 27037 ft | 432 kts | 274° |
| 2026-05-08 05:34 | 39.97297 | -105.65104 | 27412 ft | 437 kts | 274° |
| 2026-05-08 05:34 | 39.97498 | -105.69069 | 27778 ft | 440 kts | 274° |
| 2026-05-08 05:34 | 39.97701 | -105.73074 | 28131 ft | 444 kts | 274° |
| 2026-05-08 05:34 | 39.97904 | -105.77098 | 28604 ft | 444 kts | 274° |
| 2026-05-08 05:35 | 39.98105 | -105.81123 | 29099 ft | 445 kts | 274° |
| 2026-05-08 05:35 | 39.98307 | -105.85167 | 29516 ft | 447 kts | 274° |
| 2026-05-08 05:35 | 39.98508 | -105.89232 | 29877 ft | 451 kts | 274° |
| 2026-05-08 05:35 | 39.98709 | -105.93332 | 30221 ft | 454 kts | 274° |
| 2026-05-08 05:36 | 39.98908 | -105.97403 | 30642 ft | 454 kts | 274° |
| 2026-05-08 05:36 | 39.99107 | -106.01518 | 31145 ft | 453 kts | 274° |
| 2026-05-08 05:36 | 39.99303 | -106.05617 | 31636 ft | 452 kts | 274° |
| 2026-05-08 05:36 | 39.99497 | -106.09690 | 32173 ft | 450 kts | 274° |
| 2026-05-08 05:37 | 39.99689 | -106.13751 | 32766 ft | 446 kts | 273° |
| 2026-05-08 05:37 | 39.99879 | -106.17795 | 33275 ft | 445 kts | 273° |
| 2026-05-08 05:37 | 40.00065 | -106.21787 | 33746 ft | 445 kts | 273° |
| 2026-05-08 05:37 | 40.00252 | -106.25816 | 34240 ft | 444 kts | 273° |
| 2026-05-08 05:38 | 40.00436 | -106.29833 | 34736 ft | 443 kts | 273° |
| 2026-05-08 05:38 | 40.00620 | -106.33845 | 35219 ft | 442 kts | 273° |
| 2026-05-08 05:38 | 40.00801 | -106.37840 | 35707 ft | 441 kts | 273° |
| 2026-05-08 05:38 | 40.00991 | -106.41829 | 36179 ft | 439 kts | 276° |
| 2026-05-08 05:39 | 40.01532 | -106.45750 | 36510 ft | 441 kts | 285° |
| 2026-05-08 05:39 | 40.02534 | -106.49535 | 36857 ft | 443 kts | 293° |
| 2026-05-08 05:39 | 40.03982 | -106.53097 | 37163 ft | 444 kts | 301° |
| 2026-05-08 05:39 | 40.05591 | -106.56550 | 37479 ft | 445 kts | 301° |
| 2026-05-08 05:40 | 40.07231 | -106.59988 | 37838 ft | 445 kts | 302° |
| 2026-05-08 05:40 | 40.08875 | -106.63422 | 38190 ft | 445 kts | 302° |
| 2026-05-08 05:40 | 40.10490 | -106.66817 | 38539 ft | 445 kts | 301° |
| 2026-05-08 05:40 | 40.12113 | -106.70258 | 38909 ft | 443 kts | 301° |
| 2026-05-08 05:41 | 40.13721 | -106.73693 | 39311 ft | 441 kts | 301° |
| 2026-05-08 05:41 | 40.15314 | -106.77116 | 39687 ft | 440 kts | 301° |
| 2026-05-08 05:41 | 40.16896 | -106.80529 | 39988 ft | 440 kts | 301° |
| 2026-05-08 05:42 | 40.20094 | -106.87447 | 40004 ft | 446 kts | 301° |
| 2026-05-08 05:42 | 40.23281 | -106.94362 | 39996 ft | 438 kts | 301° |
| 2026-05-08 05:43 | 40.26390 | -107.01118 | 39999 ft | 436 kts | 301° |
| 2026-05-08 05:43 | 40.29523 | -107.07941 | 40010 ft | 438 kts | 301° |
| 2026-05-08 05:44 | 40.32673 | -107.14806 | 40008 ft | 440 kts | 301° |
| 2026-05-08 05:44 | 40.35825 | -107.21706 | 40003 ft | 442 kts | 301° |
| 2026-05-08 05:45 | 40.38983 | -107.28632 | 40006 ft | 442 kts | 301° |
| 2026-05-08 05:45 | 40.42136 | -107.35561 | 40011 ft | 441 kts | 301° |
| 2026-05-08 05:46 | 40.45244 | -107.42407 | 40039 ft | 439 kts | 301° |
| 2026-05-08 05:46 | 40.48365 | -107.49306 | 39924 ft | 440 kts | 300° |
| 2026-05-08 05:47 | 40.51477 | -107.56215 | 39851 ft | 438 kts | 300° |
| 2026-05-08 05:47 | 40.54570 | -107.63107 | 39783 ft | 436 kts | 300° |
| 2026-05-08 05:48 | 40.57657 | -107.69997 | 39577 ft | 438 kts | 300° |
| 2026-05-08 05:48 | 40.60742 | -107.76892 | 39472 ft | 436 kts | 300° |
| 2026-05-08 05:49 | 40.63785 | -107.83698 | 39429 ft | 433 kts | 300° |
| 2026-05-08 05:49 | 40.66846 | -107.90529 | 39305 ft | 433 kts | 301° |
| 2026-05-08 05:50 | 40.69992 | -107.97303 | 39169 ft | 429 kts | 302° |
| 2026-05-08 05:50 | 40.71598 | -108.00582 | 38898 ft | 423 kts | 303° |
| 2026-05-08 05:50 | 40.73242 | -108.03804 | 38326 ft | 423 kts | 304° |
| 2026-05-08 05:50 | 40.74939 | -108.06990 | 37577 ft | 427 kts | 306° |
| 2026-05-08 05:51 | 40.76701 | -108.10147 | 37149 ft | 418 kts | 307° |
| 2026-05-08 05:51 | 40.78386 | -108.13005 | 38036 ft | 385 kts | 306° |
| 2026-05-08 05:51 | 40.79889 | -108.16067 | 36886 ft | 418 kts | 295° |
| 2026-05-08 05:52 | 40.82135 | -108.23062 | 37241 ft | 409 kts | 293° |
| 2026-05-08 05:52 | 40.83309 | -108.26485 | 37603 ft | 409 kts | 295° |
| 2026-05-08 05:52 | 40.84576 | -108.29865 | 37953 ft | 410 kts | 297° |
| 2026-05-08 05:53 | 40.87349 | -108.36627 | 38006 ft | 425 kts | 299° |
| 2026-05-08 05:53 | 40.90277 | -108.43374 | 37988 ft | 423 kts | 300° |
| 2026-05-08 05:54 | 40.93199 | -108.50019 | 37996 ft | 416 kts | 300° |
| 2026-05-08 05:54 | 40.96105 | -108.56641 | 38005 ft | 417 kts | 300° |
| 2026-05-08 05:55 | 40.99019 | -108.63307 | 38004 ft | 419 kts | 300° |
| 2026-05-08 05:55 | 41.01935 | -108.70002 | 38002 ft | 420 kts | 300° |
| 2026-05-08 05:56 | 41.04851 | -108.76712 | 38001 ft | 420 kts | 300° |
| 2026-05-08 05:56 | 41.07745 | -108.83385 | 38000 ft | 420 kts | 300° |
| 2026-05-08 05:57 | 41.10660 | -108.90125 | 38001 ft | 420 kts | 300° |
| 2026-05-08 05:57 | 41.13570 | -108.96864 | 38002 ft | 420 kts | 300° |
| 2026-05-08 05:58 | 41.16455 | -109.03563 | 38003 ft | 420 kts | 300° |
| 2026-05-08 05:58 | 41.19353 | -109.10308 | 38000 ft | 420 kts | 299° |
| 2026-05-08 05:59 | 41.22248 | -109.17059 | 38003 ft | 420 kts | 299° |
| 2026-05-08 05:59 | 41.25116 | -109.23762 | 38006 ft | 419 kts | 299° |
| 2026-05-08 06:00 | 41.27997 | -109.30513 | 38000 ft | 419 kts | 299° |
| 2026-05-08 06:00 | 41.30871 | -109.37260 | 37999 ft | 418 kts | 299° |
| 2026-05-08 06:01 | 41.33736 | -109.44003 | 38005 ft | 418 kts | 299° |
| 2026-05-08 06:01 | 41.36591 | -109.50735 | 37997 ft | 417 kts | 299° |
| 2026-05-08 06:02 | 41.39420 | -109.57422 | 38002 ft | 417 kts | 299° |
| 2026-05-08 06:02 | 41.42264 | -109.64160 | 38001 ft | 416 kts | 299° |
| 2026-05-08 06:03 | 41.45101 | -109.70898 | 38002 ft | 416 kts | 299° |
| 2026-05-08 06:03 | 41.47928 | -109.77626 | 38000 ft | 416 kts | 299° |
| 2026-05-08 06:04 | 41.50737 | -109.84324 | 38003 ft | 416 kts | 299° |
| 2026-05-08 06:04 | 41.53565 | -109.91086 | 38002 ft | 417 kts | 299° |
| 2026-05-08 06:05 | 41.56384 | -109.97842 | 38002 ft | 418 kts | 299° |
| 2026-05-08 06:05 | 41.59216 | -110.04642 | 38001 ft | 418 kts | 299° |
| 2026-05-08 06:06 | 41.62041 | -110.11442 | 38000 ft | 418 kts | 299° |
| 2026-05-08 06:06 | 41.64862 | -110.18249 | 38000 ft | 418 kts | 298° |
| 2026-05-08 06:07 | 41.67657 | -110.25007 | 38001 ft | 417 kts | 298° |
| 2026-05-08 06:07 | 41.70463 | -110.31809 | 38001 ft | 417 kts | 298° |
| 2026-05-08 06:08 | 41.73260 | -110.38603 | 38001 ft | 416 kts | 298° |
| 2026-05-08 06:08 | 41.76049 | -110.45394 | 38002 ft | 416 kts | 298° |
| 2026-05-08 06:09 | 41.78836 | -110.52195 | 38000 ft | 416 kts | 298° |
| 2026-05-08 06:09 | 41.81621 | -110.59008 | 38002 ft | 417 kts | 298° |
| 2026-05-08 06:10 | 41.84389 | -110.65794 | 38003 ft | 417 kts | 298° |
| 2026-05-08 06:10 | 41.87171 | -110.72632 | 38004 ft | 417 kts | 298° |
| 2026-05-08 06:11 | 41.89952 | -110.79482 | 37996 ft | 418 kts | 298° |
| 2026-05-08 06:11 | 41.92717 | -110.86308 | 38004 ft | 418 kts | 298° |